Terminal Aerodrome Forecast
Issued by NWS

Home | Current Version | Previous Version | Text Only | Print | Product List | Glossary Off
Versions: 1 2 3 4 5 6 7 8 9 10 11 12 13 14 15 16 17

000
FTUS43 KTOP 241700
TAFMHK
TAF
KMHK 241721Z 2418/2518 14013G20KT P6SM FEW250
     FM250100 15009KT P6SM SCT250
     FM250800 19012KT P6SM BKN200=

USA.gov is the U.S. government's official web portal to all federal, state and local government web resources and services.